createdAt,value
2022-08-18T00:01:07.763Z,19.00
2022-08-18T00:03:55.425Z,18.90
2022-08-18T00:06:27.903Z,18.80
2022-08-18T00:08:57.401Z,18.90
2022-08-18T00:11:25.628Z,18.90
2022-08-18T00:13:53.747Z,18.90
2022-08-18T00:16:21.802Z,19.00
2022-08-18T00:18:51.310Z,19.00
2022-08-18T00:21:19.872Z,19.00
2022-08-18T00:23:47.950Z,19.00
2022-08-18T00:26:16.280Z,19.00
2022-08-18T00:28:44.322Z,19.00
2022-08-18T00:31:12.386Z,19.00
2022-08-18T00:33:40.487Z,19.00
2022-08-18T00:36:10.110Z,19.10
2022-08-18T00:38:38.279Z,19.10
2022-08-18T00:41:07.647Z,19.10
2022-08-18T00:43:40.836Z,19.10
2022-08-18T00:46:12.988Z,19.10
2022-08-18T00:48:41.237Z,19.20
2022-08-18T00:51:24.741Z,19.20
2022-08-18T00:54:00.039Z,19.20
2022-08-18T00:56:33.621Z,19.30
2022-08-18T00:59:07.937Z,19.30
2022-08-18T01:01:36.703Z,19.30
2022-08-18T01:04:11.622Z,19.40
2022-08-18T01:06:45.611Z,19.40
2022-08-18T01:09:15.532Z,19.40
2022-08-18T01:11:44.336Z,19.40
2022-08-18T01:14:15.887Z,19.40
2022-08-18T01:17:17.137Z,19.40
2022-08-18T01:20:04.736Z,19.40
2022-08-18T01:22:39.733Z,19.30
2022-08-18T01:25:27.909Z,19.30
2022-08-18T01:28:00.861Z,19.30
2022-08-18T01:30:31.258Z,19.30
2022-08-18T01:32:59.809Z,19.30
2022-08-18T01:35:29.023Z,19.30
2022-08-18T01:38:06.442Z,19.30
2022-08-18T01:41:09.196Z,19.30
2022-08-18T01:43:24.910Z,19.30
2022-08-18T01:45:53.159Z,19.30
2022-08-18T01:48:21.352Z,19.40
2022-08-18T01:50:49.903Z,19.40
2022-08-18T01:53:18.988Z,19.40
2022-08-18T01:55:48.436Z,19.40
2022-08-18T01:58:16.513Z,19.40
2022-08-18T02:00:44.841Z,19.30
2022-08-18T02:03:15.325Z,19.30
2022-08-18T02:05:50.647Z,19.30
2022-08-18T02:08:19.059Z,19.30
2022-08-18T02:10:48.610Z,19.30
2022-08-18T02:13:16.648Z,19.30
2022-08-18T02:15:44.684Z,19.30
2022-08-18T02:18:30.430Z,19.30
2022-08-18T02:21:10.500Z,19.30
2022-08-18T02:23:39.063Z,19.30
2022-08-18T02:26:11.828Z,19.30
2022-08-18T02:28:40.077Z,19.30
2022-08-18T02:31:11.327Z,19.30
2022-08-18T02:33:39.810Z,19.20
2022-08-18T02:36:16.002Z,19.10
2022-08-18T02:38:44.616Z,19.20
2022-08-18T02:41:26.089Z,19.20
2022-08-18T02:43:57.595Z,19.30
2022-08-18T02:46:30.098Z,19.20
2022-08-18T02:49:00.186Z,19.20
2022-08-18T02:51:28.896Z,19.10
2022-08-18T02:53:59.025Z,19.20
2022-08-18T02:56:40.568Z,19.20
2022-08-18T02:59:12.216Z,19.30
2022-08-18T03:01:43.391Z,19.40
2022-08-18T03:04:14.382Z,19.30
2022-08-18T03:06:43.326Z,19.30
2022-08-18T03:09:14.553Z,19.30
2022-08-18T03:11:44.757Z,19.20
2022-08-18T03:14:13.797Z,19.20
2022-08-18T03:16:52.892Z,19.10
2022-08-18T03:19:23.350Z,19.10
2022-08-18T03:21:52.512Z,19.10
2022-08-18T03:24:22.606Z,19.00
2022-08-18T03:26:55.681Z,19.10
2022-08-18T03:29:31.133Z,19.10
2022-08-18T03:32:00.147Z,19.10
2022-08-18T03:34:28.320Z,19.10
2022-08-18T03:36:56.348Z,19.10
2022-08-18T03:39:27.716Z,19.10
2022-08-18T03:42:01.573Z,19.20
2022-08-18T03:44:31.965Z,19.10
2022-08-18T03:47:01.075Z,19.10
2022-08-18T03:49:29.258Z,19.20
2022-08-18T03:52:00.104Z,19.20
2022-08-18T03:54:28.721Z,19.20
2022-08-18T03:56:58.467Z,19.20
2022-08-18T03:59:27.378Z,19.10
2022-08-18T04:01:56.204Z,19.10
2022-08-18T04:04:27.538Z,19.10
2022-08-18T04:06:58.618Z,19.10
2022-08-18T04:09:29.366Z,19.10
2022-08-18T04:12:00.647Z,19.00
2022-08-18T04:14:30.498Z,19.10
2022-08-18T04:16:59.507Z,19.00
2022-08-18T04:19:28.273Z,19.00
2022-08-18T04:21:57.977Z,19.10
2022-08-18T04:24:28.034Z,19.00
2022-08-18T04:27:02.367Z,19.00
2022-08-18T04:29:30.604Z,19.00
2022-08-18T04:32:01.577Z,19.10
2022-08-18T04:34:29.760Z,19.00
2022-08-18T04:36:57.781Z,19.00
2022-08-18T04:39:26.574Z,19.00
2022-08-18T04:41:54.723Z,19.00
2022-08-18T04:44:24.218Z,19.00
2022-08-18T04:46:54.605Z,19.10
2022-08-18T04:49:26.067Z,19.10
2022-08-18T04:52:33.940Z,19.20
2022-08-18T04:55:01.710Z,19.20
2022-08-18T04:57:33.022Z,19.20
2022-08-18T05:00:06.919Z,19.10
2022-08-18T05:02:35.146Z,19.10
2022-08-18T05:05:04.103Z,19.10
2022-08-18T05:07:32.756Z,19.10
2022-08-18T05:10:00.857Z,19.10
2022-08-18T05:12:29.457Z,19.10
2022-08-18T05:14:57.952Z,19.20
2022-08-18T05:17:30.634Z,19.20
2022-08-18T05:20:01.024Z,19.30
2022-08-18T05:22:31.524Z,19.30
2022-08-18T05:25:00.413Z,19.30
2022-08-18T05:27:35.848Z,19.30
2022-08-18T05:30:05.708Z,19.30
2022-08-18T05:32:47.421Z,19.20
2022-08-18T05:35:24.339Z,19.20
2022-08-18T05:38:06.996Z,19.20
2022-08-18T05:40:37.104Z,19.20
2022-08-18T05:43:08.254Z,19.30
2022-08-18T05:45:36.701Z,19.40
2022-08-18T05:48:06.609Z,19.40
2022-08-18T05:50:38.445Z,19.50
2022-08-18T05:53:13.841Z,19.50
2022-08-18T05:56:07.005Z,19.50
2022-08-18T05:58:39.646Z,19.70
2022-08-18T06:01:19.853Z,19.80
2022-08-18T06:03:53.934Z,19.90
2022-08-18T06:06:24.097Z,20.00
2022-08-18T06:09:02.293Z,20.00
2022-08-18T06:11:30.530Z,20.10
2022-08-18T06:14:01.300Z,20.10
2022-08-18T06:16:42.036Z,20.10
2022-08-18T06:19:39.082Z,20.10
2022-08-18T06:22:18.739Z,20.00
2022-08-18T06:24:53.356Z,20.10
2022-08-18T06:27:29.742Z,20.20
2022-08-18T06:30:05.388Z,20.10
2022-08-18T06:32:52.715Z,20.00
2022-08-18T06:35:33.294Z,20.00
2022-08-18T06:38:30.658Z,19.90
2022-08-18T06:41:03.997Z,19.90
2022-08-18T06:43:35.032Z,19.90
2022-08-18T06:46:08.941Z,19.90
2022-08-18T06:48:45.566Z,19.90
2022-08-18T06:51:19.867Z,19.80
2022-08-18T06:53:58.589Z,19.80
2022-08-18T06:56:34.882Z,19.90
2022-08-18T06:59:19.104Z,19.90
2022-08-18T07:01:50.786Z,19.90
2022-08-18T07:04:37.083Z,19.90
2022-08-18T07:07:20.852Z,19.70
2022-08-18T07:09:50.264Z,19.50
2022-08-18T07:12:29.032Z,19.70
2022-08-18T07:15:02.924Z,19.70
2022-08-18T07:17:42.331Z,19.80
2022-08-18T07:20:21.800Z,19.90
2022-08-18T07:22:56.553Z,19.90
2022-08-18T07:25:31.506Z,20.00
2022-08-18T07:28:02.718Z,19.90
2022-08-18T07:30:34.447Z,19.80
2022-08-18T07:33:12.151Z,19.70
2022-08-18T07:35:47.600Z,19.70
2022-08-18T07:38:42.100Z,19.70
2022-08-18T07:41:20.317Z,19.90
2022-08-18T07:44:00.779Z,20.20
2022-08-18T07:46:37.256Z,20.50
2022-08-18T07:49:06.984Z,20.70
2022-08-18T07:51:47.612Z,20.90
2022-08-18T07:54:50.426Z,20.90
2022-08-18T07:57:28.963Z,21.10
2022-08-18T08:00:10.568Z,21.20
2022-08-18T08:02:59.916Z,21.30
2022-08-18T08:05:42.826Z,21.30
2022-08-18T08:08:25.397Z,21.30
2022-08-18T08:11:06.558Z,21.20
2022-08-18T08:13:55.621Z,21.20
2022-08-18T08:16:36.400Z,21.20
2022-08-18T08:19:16.361Z,21.00
2022-08-18T08:22:01.969Z,20.90
2022-08-18T08:24:40.585Z,20.90
2022-08-18T08:27:17.894Z,21.00
2022-08-18T08:29:57.274Z,21.10
2022-08-18T08:32:32.850Z,20.90
2022-08-18T08:35:06.870Z,21.00
2022-08-18T08:37:42.204Z,21.10
2022-08-18T08:40:17.108Z,21.10
2022-08-18T08:42:55.498Z,21.20
2022-08-18T08:45:28.042Z,21.30
2022-08-18T08:48:08.843Z,21.30
2022-08-18T08:50:42.523Z,21.30
2022-08-18T08:53:19.300Z,21.40
2022-08-18T08:55:52.137Z,21.60
2022-08-18T08:58:26.583Z,21.70
2022-08-18T09:00:56.758Z,21.80
2022-08-18T09:03:36.967Z,21.90
2022-08-18T09:06:20.693Z,22.00
2022-08-18T09:09:06.239Z,21.80
2022-08-18T09:11:57.081Z,21.90
2022-08-18T09:15:00.311Z,22.10
2022-08-18T09:17:56.244Z,22.10
2022-08-18T09:20:57.435Z,22.20
2022-08-18T09:23:28.908Z,22.20
2022-08-18T09:26:00.277Z,22.00
2022-08-18T09:28:56.563Z,21.80
2022-08-18T09:31:31.858Z,21.70
2022-08-18T09:34:26.938Z,22.00
2022-08-18T09:37:06.275Z,22.20
2022-08-18T09:39:59.071Z,22.40
2022-08-18T09:42:49.816Z,22.90
2022-08-18T09:45:57.621Z,23.10
2022-08-18T09:48:30.814Z,23.40
2022-08-18T09:51:35.344Z,23.50
2022-08-18T09:54:14.671Z,23.80
2022-08-18T09:57:19.617Z,24.20
2022-08-18T10:00:19.462Z,24.10
2022-08-18T10:03:13.797Z,23.80
2022-08-18T10:06:16.373Z,23.60
2022-08-18T10:09:14.679Z,23.50
2022-08-18T10:11:59.514Z,23.20
2022-08-18T10:14:56.855Z,23.10
2022-08-18T10:17:42.219Z,22.90
2022-08-18T10:20:26.684Z,22.80
2022-08-18T10:22:57.928Z,22.70
2022-08-18T10:25:36.584Z,22.70
2022-08-18T10:28:06.891Z,22.90
2022-08-18T10:31:13.229Z,23.00
2022-08-18T10:34:16.835Z,23.00
2022-08-18T10:36:52.386Z,23.00
2022-08-18T10:39:24.976Z,23.10
2022-08-18T10:42:03.093Z,23.30
2022-08-18T10:44:35.729Z,23.50
2022-08-18T10:47:12.105Z,23.70
2022-08-18T10:49:46.651Z,23.80
2022-08-18T10:53:17.015Z,24.10
2022-08-18T10:55:52.604Z,24.20
2022-08-18T10:58:50.761Z,24.20
2022-08-18T11:01:53.206Z,24.30
2022-08-18T11:04:34.633Z,24.70
2022-08-18T11:07:12.737Z,24.90
2022-08-18T11:09:50.754Z,25.00
2022-08-18T11:12:55.718Z,25.10
2022-08-18T11:15:28.957Z,25.40
2022-08-18T11:18:24.178Z,25.40
2022-08-18T11:20:53.744Z,25.40
2022-08-18T11:23:21.837Z,25.40
2022-08-18T11:25:52.281Z,25.30
2022-08-18T11:28:31.829Z,25.30
2022-08-18T11:31:01.060Z,25.30
2022-08-18T11:33:30.807Z,25.50
2022-08-18T11:36:01.780Z,25.80
2022-08-18T11:38:31.749Z,25.60
2022-08-18T11:41:17.388Z,25.80
2022-08-18T11:43:50.516Z,26.10
2022-08-18T11:46:30.449Z,25.80
2022-08-18T11:49:04.474Z,26.00
2022-08-18T11:51:36.248Z,26.30
2022-08-18T11:54:24.975Z,26.20
2022-08-18T11:56:54.274Z,26.40
2022-08-18T11:59:53.325Z,26.20
2022-08-18T12:02:25.272Z,26.40
2022-08-18T12:05:08.500Z,26.10
2022-08-18T12:07:45.365Z,26.20
2022-08-18T12:10:29.020Z,26.50
2022-08-18T12:13:01.135Z,26.20
2022-08-18T12:18:28.391Z,26.10
2022-08-18T12:20:58.680Z,25.90
2022-08-18T12:23:28.004Z,25.80
2022-08-18T12:26:27.157Z,25.90
2022-08-18T12:29:01.444Z,26.10
2022-08-18T12:31:42.548Z,26.20
2022-08-18T12:34:16.288Z,26.30
2022-08-18T12:36:46.387Z,26.10
2022-08-18T12:39:14.511Z,26.10
2022-08-18T12:41:43.015Z,26.00
2022-08-18T12:44:13.434Z,25.90
2022-08-18T12:46:43.926Z,25.90
2022-08-18T12:49:17.116Z,25.70
2022-08-18T12:51:45.547Z,25.50
2022-08-18T12:54:18.859Z,25.60
2022-08-18T12:56:51.584Z,25.70
2022-08-18T12:59:19.904Z,25.60
2022-08-18T13:01:49.629Z,25.80
2022-08-18T13:04:18.663Z,26.00
2022-08-18T13:07:00.590Z,26.20
2022-08-18T13:09:35.800Z,26.10
2022-08-18T13:12:20.341Z,26.30
2022-08-18T13:14:49.945Z,26.10
2022-08-18T13:17:33.451Z,25.90
2022-08-18T13:20:03.810Z,25.90
2022-08-18T13:22:33.350Z,25.90
2022-08-18T13:25:03.714Z,25.90
2022-08-18T13:27:35.259Z,25.90
2022-08-18T13:30:29.391Z,26.00
2022-08-18T13:33:02.202Z,26.20
2022-08-18T13:35:38.276Z,26.40
2022-08-18T13:38:21.791Z,26.60
2022-08-18T13:40:58.852Z,26.60
2022-08-18T13:43:34.391Z,26.50
2022-08-18T13:46:05.786Z,26.30
2022-08-18T13:48:41.592Z,26.20
2022-08-18T13:51:14.200Z,26.10
2022-08-18T13:54:06.322Z,25.90
2022-08-18T13:56:35.785Z,25.80
2022-08-18T13:59:05.396Z,25.80
2022-08-18T14:01:44.187Z,25.80
2022-08-18T14:04:27.696Z,25.70
2022-08-18T14:06:59.180Z,25.60
2022-08-18T14:09:36.102Z,25.30
2022-08-18T14:12:21.547Z,25.20
2022-08-18T14:14:52.669Z,25.20
2022-08-18T14:17:22.658Z,25.30
2022-08-18T14:20:15.572Z,25.30
2022-08-18T14:23:09.455Z,25.50
2022-08-18T14:25:55.091Z,25.60
2022-08-18T14:28:24.872Z,25.40
2022-08-18T14:30:55.354Z,25.70
2022-08-18T14:33:34.445Z,25.70
2022-08-18T14:36:16.627Z,25.60
2022-08-18T14:38:46.565Z,25.70
2022-08-18T14:41:20.220Z,25.90
2022-08-18T14:44:12.883Z,26.10
2022-08-18T14:46:42.048Z,26.10
2022-08-18T14:49:28.400Z,26.00
2022-08-18T14:51:59.079Z,25.50
2022-08-18T14:54:28.735Z,25.30
2022-08-18T14:56:58.347Z,25.10
2022-08-18T14:59:28.375Z,24.90
2022-08-18T15:01:56.933Z,25.10
2022-08-18T15:04:25.471Z,25.20
2022-08-18T15:06:56.790Z,25.40
2022-08-18T15:09:29.832Z,25.60
2022-08-18T15:12:01.538Z,25.80
2022-08-18T15:14:33.769Z,25.90
2022-08-18T15:17:02.851Z,25.90
2022-08-18T15:19:58.554Z,25.80
2022-08-18T15:22:36.231Z,25.60
2022-08-18T15:25:24.243Z,25.50
2022-08-18T15:27:53.316Z,25.70
2022-08-18T15:30:22.997Z,25.60
2022-08-18T15:32:52.075Z,25.80
2022-08-18T15:35:21.333Z,26.00
2022-08-18T15:37:51.330Z,26.00
2022-08-18T15:40:31.024Z,26.10
2022-08-18T15:43:09.889Z,26.30
2022-08-18T15:45:43.426Z,26.40
2022-08-18T15:48:28.228Z,26.20
2022-08-18T15:50:56.928Z,26.10
2022-08-18T15:53:30.047Z,26.00
2022-08-18T15:56:04.223Z,26.00
2022-08-18T15:58:32.613Z,26.10
2022-08-18T16:01:00.636Z,26.30
2022-08-18T16:03:29.058Z,26.30
2022-08-18T16:05:57.103Z,26.50
2022-08-18T16:08:26.805Z,26.90
2022-08-18T16:10:55.517Z,26.90
2022-08-18T16:13:26.502Z,26.80
2022-08-18T16:15:54.635Z,26.60
2022-08-18T16:18:22.751Z,26.40
2022-08-18T16:20:52.737Z,26.30
2022-08-18T16:23:25.021Z,26.30
2022-08-18T16:25:53.070Z,26.50
2022-08-18T16:28:21.103Z,26.50
2022-08-18T16:31:04.079Z,26.40
2022-08-18T16:33:32.261Z,26.40
2022-08-18T16:36:04.143Z,26.40
2022-08-18T16:38:32.350Z,26.30
2022-08-18T16:41:06.890Z,26.20
2022-08-18T16:43:34.991Z,26.40
2022-08-18T16:46:06.326Z,26.30
2022-08-18T16:48:35.025Z,26.20
2022-08-18T16:51:03.367Z,26.20
2022-08-18T16:53:40.395Z,25.90
2022-08-18T16:56:14.101Z,25.90
2022-08-18T16:58:59.445Z,25.70
2022-08-18T17:01:49.392Z,25.70
2022-08-18T17:04:24.583Z,25.50
2022-08-18T17:06:53.011Z,25.30
2022-08-18T17:09:22.168Z,25.10
2022-08-18T17:11:51.423Z,24.80
2022-08-18T17:14:21.160Z,24.60
2022-08-18T17:16:54.948Z,24.50
2022-08-18T17:19:24.370Z,24.20
2022-08-18T17:21:52.937Z,24.20
2022-08-18T17:24:31.106Z,24.10
2022-08-18T17:27:12.246Z,24.00
2022-08-18T17:30:01.775Z,23.90
2022-08-18T17:35:15.329Z,23.70
2022-08-18T17:37:49.327Z,23.60
2022-08-18T17:40:22.105Z,23.60
2022-08-18T17:42:52.611Z,23.60
2022-08-18T17:45:22.523Z,23.60
2022-08-18T17:48:01.170Z,23.50
2022-08-18T17:50:51.488Z,23.30
2022-08-18T17:53:20.719Z,23.20
2022-08-18T17:55:52.996Z,23.10
2022-08-18T17:58:27.528Z,23.10
2022-08-18T18:00:55.728Z,23.00
2022-08-18T18:03:25.552Z,22.90
2022-08-18T18:06:00.969Z,22.80
2022-08-18T18:08:51.233Z,22.70
2022-08-18T18:11:26.634Z,22.50
2022-08-18T18:13:54.902Z,22.50
2022-08-18T18:16:29.519Z,22.40
2022-08-18T18:19:03.189Z,22.30
2022-08-18T18:22:00.405Z,22.30
2022-08-18T18:24:32.284Z,22.20
2022-08-18T18:27:00.597Z,22.00
2022-08-18T18:29:35.696Z,21.90
2022-08-18T18:32:24.117Z,21.70
2022-08-18T18:35:11.504Z,21.60
2022-08-18T18:37:47.314Z,21.50
2022-08-18T18:40:35.091Z,21.40
2022-08-18T18:43:22.379Z,21.50
2022-08-18T18:46:23.412Z,21.20
2022-08-18T18:49:01.068Z,21.10
2022-08-18T18:51:39.666Z,21.00
2022-08-18T18:54:17.828Z,20.80
2022-08-18T18:56:52.449Z,20.80
2022-08-18T18:59:35.254Z,20.70
2022-08-18T19:02:32.926Z,20.50
2022-08-18T19:05:11.574Z,20.50
2022-08-18T19:08:02.864Z,20.40
2022-08-18T19:10:37.155Z,20.30
2022-08-18T19:13:11.403Z,20.20
2022-08-18T19:15:58.392Z,20.10
2022-08-18T19:18:30.480Z,20.10
2022-08-18T19:22:01.949Z,20.00
2022-08-18T19:23:58.371Z,20.00
2022-08-18T19:26:29.700Z,19.90
2022-08-18T19:29:13.987Z,19.80
2022-08-18T19:31:48.434Z,19.70
2022-08-18T19:34:22.766Z,19.70
2022-08-18T19:37:02.734Z,19.70
2022-08-18T19:39:43.477Z,19.60
2022-08-18T19:42:17.392Z,19.60
2022-08-18T19:45:13.078Z,19.50
2022-08-18T19:47:42.326Z,19.50
2022-08-18T19:50:17.102Z,19.40
2022-08-18T19:53:01.106Z,19.40
2022-08-18T19:55:45.506Z,19.30
2022-08-18T19:59:04.720Z,19.30
2022-08-18T20:01:45.140Z,19.30
2022-08-18T20:04:25.995Z,19.30
2022-08-18T20:07:10.772Z,19.20
2022-08-18T20:10:25.581Z,19.10
2022-08-18T20:13:20.749Z,19.10
2022-08-18T20:16:11.476Z,19.00
2022-08-18T20:18:41.417Z,19.00
2022-08-18T20:21:44.089Z,18.90
2022-08-18T20:24:46.562Z,18.90
2022-08-18T20:27:22.650Z,18.80
2022-08-18T20:30:21.920Z,18.70
2022-08-18T20:33:15.581Z,18.70
2022-08-18T20:35:48.115Z,18.60
2022-08-18T20:38:22.421Z,18.60
2022-08-18T20:40:52.200Z,18.60
2022-08-18T20:43:30.315Z,18.50
2022-08-18T20:46:14.216Z,18.50
2022-08-18T20:49:06.841Z,18.40
2022-08-18T20:51:42.504Z,18.40
2022-08-18T20:54:32.133Z,18.30
2022-08-18T20:57:02.999Z,18.30
2022-08-18T20:59:34.230Z,18.30
2022-08-18T21:02:06.610Z,18.20
2022-08-18T21:04:42.466Z,18.20
2022-08-18T21:07:35.951Z,18.10
2022-08-18T21:10:12.215Z,18.20
2022-08-18T21:12:51.810Z,18.20
2022-08-18T21:15:21.947Z,18.10
2022-08-18T21:18:00.360Z,18.10
2022-08-18T21:20:29.279Z,18.10
2022-08-18T21:23:09.712Z,18.10
2022-08-18T21:25:40.537Z,18.00
2022-08-18T21:28:08.769Z,18.00
2022-08-18T21:30:38.022Z,18.00
2022-08-18T21:33:21.296Z,17.90
2022-08-18T21:35:49.366Z,17.90
2022-08-18T21:38:26.677Z,17.90
2022-08-18T21:40:59.145Z,17.90
2022-08-18T21:43:43.583Z,17.80
2022-08-18T21:46:26.062Z,17.80
2022-08-18T21:48:57.248Z,17.80
2022-08-18T21:51:27.644Z,17.70
2022-08-18T21:53:56.808Z,17.70
2022-08-18T21:56:27.848Z,17.70
2022-08-18T21:59:09.666Z,17.70
2022-08-18T22:01:40.077Z,17.60
2022-08-18T22:04:25.825Z,17.60
2022-08-18T22:06:58.035Z,17.50
2022-08-18T22:09:45.455Z,17.50
2022-08-18T22:12:47.127Z,17.40
2022-08-18T22:15:19.163Z,17.40
2022-08-18T22:17:58.572Z,17.30
2022-08-18T22:20:49.332Z,17.30
2022-08-18T22:23:53.331Z,17.30
2022-08-18T22:26:25.443Z,17.20
2022-08-18T22:28:59.499Z,17.20
2022-08-18T22:31:30.608Z,17.10
2022-08-18T22:34:03.066Z,17.10
2022-08-18T22:36:39.449Z,17.10
2022-08-18T22:39:11.880Z,17.10
2022-08-18T22:41:41.268Z,17.10
2022-08-18T22:44:10.450Z,17.00
2022-08-18T22:46:38.742Z,17.00
2022-08-18T22:49:06.866Z,17.00
2022-08-18T22:51:37.254Z,17.00
2022-08-18T22:54:08.321Z,16.90
2022-08-18T22:56:37.944Z,16.90
2022-08-18T22:59:13.583Z,16.90
2022-08-18T23:01:45.997Z,16.80
2022-08-18T23:04:15.849Z,16.80
2022-08-18T23:06:51.549Z,16.80
2022-08-18T23:09:22.032Z,16.70
2022-08-18T23:11:50.574Z,16.70
2022-08-18T23:14:19.152Z,16.70
2022-08-18T23:16:47.339Z,16.70
2022-08-18T23:19:17.162Z,16.60
2022-08-18T23:21:48.349Z,16.60
2022-08-18T23:24:18.375Z,16.60
2022-08-18T23:26:46.595Z,16.60
2022-08-18T23:29:15.260Z,16.60
2022-08-18T23:31:45.510Z,16.50
2022-08-18T23:34:15.600Z,16.50
2022-08-18T23:36:45.755Z,16.50
2022-08-18T23:39:15.652Z,16.50
2022-08-18T23:41:43.800Z,16.50
2022-08-18T23:44:13.768Z,16.40
2022-08-18T23:46:44.530Z,16.40
2022-08-18T23:49:15.018Z,16.40
2022-08-18T23:51:45.564Z,16.40
2022-08-18T23:54:17.689Z,16.40
2022-08-18T23:56:46.587Z,16.40
2022-08-18T23:59:16.276Z,16.30
